sensor_id;sensor_type;location;lat;lon;timestamp;temperature;humidity
52381;DHT22;38310;52.796;6.942;2023-02-28T00:00:23;3.00;99.90
52381;DHT22;38310;52.796;6.942;2023-02-28T00:02:50;3.10;99.90
52381;DHT22;38310;52.796;6.942;2023-02-28T00:05:18;3.10;99.90
52381;DHT22;38310;52.796;6.942;2023-02-28T00:07:45;3.10;99.90
52381;DHT22;38310;52.796;6.942;2023-02-28T00:10:14;3.10;99.90
52381;DHT22;38310;52.796;6.942;2023-02-28T00:12:39;3.10;99.90
52381;DHT22;38310;52.796;6.942;2023-02-28T00:15:09;3.10;99.90
52381;DHT22;38310;52.796;6.942;2023-02-28T00:17:36;3.10;99.90
52381;DHT22;38310;52.796;6.942;2023-02-28T00:20:03;3.10;99.90
52381;DHT22;38310;52.796;6.942;2023-02-28T00:22:30;3.10;99.90
52381;DHT22;38310;52.796;6.942;2023-02-28T00:24:56;3.10;99.90
52381;DHT22;38310;52.796;6.942;2023-02-28T00:27:22;3.60;99.90
52381;DHT22;38310;52.796;6.942;2023-02-28T00:29:47;3.80;99.90
52381;DHT22;38310;52.796;6.942;2023-02-28T00:32:13;3.20;99.90
52381;DHT22;38310;52.796;6.942;2023-02-28T00:34:39;3.70;99.90
52381;DHT22;38310;52.796;6.942;2023-02-28T00:37:09;3.20;99.90
52381;DHT22;38310;52.796;6.942;2023-02-28T00:39:37;3.20;99.90
52381;DHT22;38310;52.796;6.942;2023-02-28T00:42:04;3.20;99.90
52381;DHT22;38310;52.796;6.942;2023-02-28T00:44:30;3.20;99.90
52381;DHT22;38310;52.796;6.942;2023-02-28T00:46:56;3.20;99.90
52381;DHT22;38310;52.796;6.942;2023-02-28T00:49:23;3.20;99.90
52381;DHT22;38310;52.796;6.942;2023-02-28T00:51:49;3.20;99.90
52381;DHT22;38310;52.796;6.942;2023-02-28T00:54:15;3.90;99.90
52381;DHT22;38310;52.796;6.942;2023-02-28T00:56:41;3.20;99.90
52381;DHT22;38310;52.796;6.942;2023-02-28T00:59:07;4.20;99.90
52381;DHT22;38310;52.796;6.942;2023-02-28T01:01:33;3.30;99.90
52381;DHT22;38310;52.796;6.942;2023-02-28T01:03:59;3.20;99.90
52381;DHT22;38310;52.796;6.942;2023-02-28T01:06:25;3.20;99.90
52381;DHT22;38310;52.796;6.942;2023-02-28T01:08:50;3.20;99.90
52381;DHT22;38310;52.796;6.942;2023-02-28T01:11:17;3.70;99.90
52381;DHT22;38310;52.796;6.942;2023-02-28T01:13:44;3.20;99.90
52381;DHT22;38310;52.796;6.942;2023-02-28T01:16:10;4.10;99.90
52381;DHT22;38310;52.796;6.942;2023-02-28T01:18:37;3.30;99.90
52381;DHT22;38310;52.796;6.942;2023-02-28T01:21:04;3.20;99.90
52381;DHT22;38310;52.796;6.942;2023-02-28T01:23:30;3.20;99.90
52381;DHT22;38310;52.796;6.942;2023-02-28T01:25:56;3.20;99.90
52381;DHT22;38310;52.796;6.942;2023-02-28T01:28:22;3.20;99.90
52381;DHT22;38310;52.796;6.942;2023-02-28T01:30:48;3.20;99.90
52381;DHT22;38310;52.796;6.942;2023-02-28T01:33:14;3.20;99.90
52381;DHT22;38310;52.796;6.942;2023-02-28T01:35:40;3.20;99.90
52381;DHT22;38310;52.796;6.942;2023-02-28T01:38:06;3.20;99.90
52381;DHT22;38310;52.796;6.942;2023-02-28T01:40:31;3.30;99.90
52381;DHT22;38310;52.796;6.942;2023-02-28T01:42:57;2.90;99.90
52381;DHT22;38310;52.796;6.942;2023-02-28T01:45:29;3.40;99.90
52381;DHT22;38310;52.796;6.942;2023-02-28T01:48:05;3.20;99.90
52381;DHT22;38310;52.796;6.942;2023-02-28T01:50:39;3.20;99.90
52381;DHT22;38310;52.796;6.942;2023-02-28T01:53:10;3.60;99.90
52381;DHT22;38310;52.796;6.942;2023-02-28T01:55:37;4.00;99.90
52381;DHT22;38310;52.796;6.942;2023-02-28T01:58:05;3.40;99.90
52381;DHT22;38310;52.796;6.942;2023-02-28T02:00:32;3.20;99.90
52381;DHT22;38310;52.796;6.942;2023-02-28T02:03:07;3.20;99.90
52381;DHT22;38310;52.796;6.942;2023-02-28T02:05:37;3.20;99.90
52381;DHT22;38310;52.796;6.942;2023-02-28T02:08:06;3.50;99.90
52381;DHT22;38310;52.796;6.942;2023-02-28T02:19:46;3.10;99.90
52381;DHT22;38310;52.796;6.942;2023-02-28T02:24:54;3.10;99.90
52381;DHT22;38310;52.796;6.942;2023-02-28T02:30:27;3.00;99.90
52381;DHT22;38310;52.796;6.942;2023-02-28T02:36:24;3.10;99.90
52381;DHT22;38310;52.796;6.942;2023-02-28T02:39:06;3.10;99.90
52381;DHT22;38310;52.796;6.942;2023-02-28T02:41:45;3.10;99.90
52381;DHT22;38310;52.796;6.942;2023-02-28T02:44:27;3.60;99.90
52381;DHT22;38310;52.796;6.942;2023-02-28T02:47:04;3.10;99.90
52381;DHT22;38310;52.796;6.942;2023-02-28T02:49:32;2.50;99.90
52381;DHT22;38310;52.796;6.942;2023-02-28T02:52:06;3.80;99.90
52381;DHT22;38310;52.796;6.942;2023-02-28T02:54:40;3.10;99.90
52381;DHT22;38310;52.796;6.942;2023-02-28T02:57:10;3.10;99.90
52381;DHT22;38310;52.796;6.942;2023-02-28T02:59:38;3.80;99.90
52381;DHT22;38310;52.796;6.942;2023-02-28T03:02:08;3.10;99.90
52381;DHT22;38310;52.796;6.942;2023-02-28T03:04:42;3.10;99.90
52381;DHT22;38310;52.796;6.942;2023-02-28T03:07:08;4.20;99.90
52381;DHT22;38310;52.796;6.942;2023-02-28T03:09:34;3.00;99.90
52381;DHT22;38310;52.796;6.942;2023-02-28T03:12:02;3.00;99.90
52381;DHT22;38310;52.796;6.942;2023-02-28T03:14:49;3.00;99.90
52381;DHT22;38310;52.796;6.942;2023-02-28T03:23:23;3.00;99.90
52381;DHT22;38310;52.796;6.942;2023-02-28T03:26:01;3.40;99.90
52381;DHT22;38310;52.796;6.942;2023-02-28T03:34:10;3.00;99.90
52381;DHT22;38310;52.796;6.942;2023-02-28T03:36:45;3.00;99.90
52381;DHT22;38310;52.796;6.942;2023-02-28T03:39:36;3.00;99.90
52381;DHT22;38310;52.796;6.942;2023-02-28T03:42:19;3.00;99.90
52381;DHT22;38310;52.796;6.942;2023-02-28T03:44:50;3.00;99.90
52381;DHT22;38310;52.796;6.942;2023-02-28T03:47:24;3.00;99.90
52381;DHT22;38310;52.796;6.942;2023-02-28T03:52:35;2.90;99.90
52381;DHT22;38310;52.796;6.942;2023-02-28T03:55:07;3.00;99.90
52381;DHT22;38310;52.796;6.942;2023-02-28T04:00:21;3.00;99.90
52381;DHT22;38310;52.796;6.942;2023-02-28T04:02:51;3.00;99.90
52381;DHT22;38310;52.796;6.942;2023-02-28T04:05:19;3.00;99.90
52381;DHT22;38310;52.796;6.942;2023-02-28T04:07:45;3.20;99.90
52381;DHT22;38310;52.796;6.942;2023-02-28T04:10:12;3.00;99.90
52381;DHT22;38310;52.796;6.942;2023-02-28T04:12:38;3.00;99.90
52381;DHT22;38310;52.796;6.942;2023-02-28T04:15:04;2.90;99.90
52381;DHT22;38310;52.796;6.942;2023-02-28T04:17:30;3.00;99.90
52381;DHT22;38310;52.796;6.942;2023-02-28T04:19:56;2.90;99.90
52381;DHT22;38310;52.796;6.942;2023-02-28T04:22:23;3.50;99.90
52381;DHT22;38310;52.796;6.942;2023-02-28T04:24:52;2.90;99.90
52381;DHT22;38310;52.796;6.942;2023-02-28T04:27:20;2.90;99.90
52381;DHT22;38310;52.796;6.942;2023-02-28T04:29:46;3.30;99.90
52381;DHT22;38310;52.796;6.942;2023-02-28T04:32:12;2.80;99.90
52381;DHT22;38310;52.796;6.942;2023-02-28T04:34:37;2.80;99.90
52381;DHT22;38310;52.796;6.942;2023-02-28T04:37:04;2.80;99.90
52381;DHT22;38310;52.796;6.942;2023-02-28T04:39:34;3.50;99.90
52381;DHT22;38310;52.796;6.942;2023-02-28T04:42:00;2.80;99.90
52381;DHT22;38310;52.796;6.942;2023-02-28T04:44:25;2.70;99.90
52381;DHT22;38310;52.796;6.942;2023-02-28T04:46:51;2.70;99.90
52381;DHT22;38310;52.796;6.942;2023-02-28T04:49:17;2.80;99.90
52381;DHT22;38310;52.796;6.942;2023-02-28T04:51:43;3.30;99.90
52381;DHT22;38310;52.796;6.942;2023-02-28T04:54:08;2.70;99.90
52381;DHT22;38310;52.796;6.942;2023-02-28T04:56:34;2.80;99.90
52381;DHT22;38310;52.796;6.942;2023-02-28T04:59:00;2.70;99.90
52381;DHT22;38310;52.796;6.942;2023-02-28T05:01:32;2.40;99.90
52381;DHT22;38310;52.796;6.942;2023-02-28T05:03:59;3.40;99.90
52381;DHT22;38310;52.796;6.942;2023-02-28T05:06:26;3.50;99.90
52381;DHT22;38310;52.796;6.942;2023-02-28T05:08:52;2.70;99.90
52381;DHT22;38310;52.796;6.942;2023-02-28T05:11:20;2.70;99.90
52381;DHT22;38310;52.796;6.942;2023-02-28T05:13:48;2.80;99.90
52381;DHT22;38310;52.796;6.942;2023-02-28T05:16:14;3.70;99.90
52381;DHT22;38310;52.796;6.942;2023-02-28T05:18:40;2.80;99.90
52381;DHT22;38310;52.796;6.942;2023-02-28T05:21:12;2.80;99.90
52381;DHT22;38310;52.796;6.942;2023-02-28T05:23:43;2.80;99.90
52381;DHT22;38310;52.796;6.942;2023-02-28T05:26:09;2.80;99.90
52381;DHT22;38310;52.796;6.942;2023-02-28T05:28:34;2.80;99.90
52381;DHT22;38310;52.796;6.942;2023-02-28T05:31:00;2.90;99.90
52381;DHT22;38310;52.796;6.942;2023-02-28T05:33:26;2.80;99.90
52381;DHT22;38310;52.796;6.942;2023-02-28T05:35:51;2.80;99.90
52381;DHT22;38310;52.796;6.942;2023-02-28T05:38:17;2.70;99.90
52381;DHT22;38310;52.796;6.942;2023-02-28T05:40:43;2.80;99.90
52381;DHT22;38310;52.796;6.942;2023-02-28T05:43:10;2.80;99.90
52381;DHT22;38310;52.796;6.942;2023-02-28T05:45:36;2.80;99.90
52381;DHT22;38310;52.796;6.942;2023-02-28T05:48:01;2.80;99.90
52381;DHT22;38310;52.796;6.942;2023-02-28T05:50:27;2.80;99.90
52381;DHT22;38310;52.796;6.942;2023-02-28T05:52:53;3.90;99.90
52381;DHT22;38310;52.796;6.942;2023-02-28T05:55:18;2.80;99.90
52381;DHT22;38310;52.796;6.942;2023-02-28T05:57:44;2.80;99.90
52381;DHT22;38310;52.796;6.942;2023-02-28T06:00:10;2.80;99.90
52381;DHT22;38310;52.796;6.942;2023-02-28T06:02:38;2.80;99.90
52381;DHT22;38310;52.796;6.942;2023-02-28T06:05:09;3.10;99.90
52381;DHT22;38310;52.796;6.942;2023-02-28T06:07:38;2.80;99.90
52381;DHT22;38310;52.796;6.942;2023-02-28T06:10:04;4.10;99.90
52381;DHT22;38310;52.796;6.942;2023-02-28T06:12:29;2.80;99.90
52381;DHT22;38310;52.796;6.942;2023-02-28T06:14:55;2.80;99.90
52381;DHT22;38310;52.796;6.942;2023-02-28T06:17:21;2.80;99.90
52381;DHT22;38310;52.796;6.942;2023-02-28T06:19:46;2.80;99.90
52381;DHT22;38310;52.796;6.942;2023-02-28T06:22:13;2.70;99.90
52381;DHT22;38310;52.796;6.942;2023-02-28T06:24:39;2.80;99.90
52381;DHT22;38310;52.796;6.942;2023-02-28T06:27:05;2.70;99.90
52381;DHT22;38310;52.796;6.942;2023-02-28T06:29:32;2.70;99.90
52381;DHT22;38310;52.796;6.942;2023-02-28T06:31:57;2.70;99.90
52381;DHT22;38310;52.796;6.942;2023-02-28T06:34:23;2.70;99.90
52381;DHT22;38310;52.796;6.942;2023-02-28T06:36:50;3.70;99.90
52381;DHT22;38310;52.796;6.942;2023-02-28T06:39:16;2.80;99.90
52381;DHT22;38310;52.796;6.942;2023-02-28T06:41:43;3.40;99.90
52381;DHT22;38310;52.796;6.942;2023-02-28T06:44:20;2.80;99.90
52381;DHT22;38310;52.796;6.942;2023-02-28T06:46:46;3.00;99.90
52381;DHT22;38310;52.796;6.942;2023-02-28T06:49:12;2.80;99.90
52381;DHT22;38310;52.796;6.942;2023-02-28T06:51:41;2.80;99.90
52381;DHT22;38310;52.796;6.942;2023-02-28T06:54:11;2.80;99.90
52381;DHT22;38310;52.796;6.942;2023-02-28T06:56:37;3.80;99.90
52381;DHT22;38310;52.796;6.942;2023-02-28T06:59:03;2.80;99.90
52381;DHT22;38310;52.796;6.942;2023-02-28T07:01:30;2.80;99.90
52381;DHT22;38310;52.796;6.942;2023-02-28T07:03:58;2.80;99.90
52381;DHT22;38310;52.796;6.942;2023-02-28T07:06:26;2.80;99.90
52381;DHT22;38310;52.796;6.942;2023-02-28T07:08:53;2.80;99.90
52381;DHT22;38310;52.796;6.942;2023-02-28T07:11:23;2.90;99.90
52381;DHT22;38310;52.796;6.942;2023-02-28T07:13:51;3.50;99.90
52381;DHT22;38310;52.796;6.942;2023-02-28T07:16:17;3.20;99.90
52381;DHT22;38310;52.796;6.942;2023-02-28T07:18:43;2.80;99.90
52381;DHT22;38310;52.796;6.942;2023-02-28T07:21:10;2.80;99.90
52381;DHT22;38310;52.796;6.942;2023-02-28T07:23:38;3.40;99.90
52381;DHT22;38310;52.796;6.942;2023-02-28T07:26:04;3.00;99.90
52381;DHT22;38310;52.796;6.942;2023-02-28T07:28:30;2.60;99.90
52381;DHT22;38310;52.796;6.942;2023-02-28T07:30:56;4.00;99.90
52381;DHT22;38310;52.796;6.942;2023-02-28T07:33:22;2.60;99.90
52381;DHT22;38310;52.796;6.942;2023-02-28T07:35:49;2.80;99.90
52381;DHT22;38310;52.796;6.942;2023-02-28T07:38:15;3.60;99.90
52381;DHT22;38310;52.796;6.942;2023-02-28T07:40:41;2.50;99.90
52381;DHT22;38310;52.796;6.942;2023-02-28T07:43:06;3.00;99.90
52381;DHT22;38310;52.796;6.942;2023-02-28T07:45:32;1.60;99.90
52381;DHT22;38310;52.796;6.942;2023-02-28T07:47:59;2.60;99.90
52381;DHT22;38310;52.796;6.942;2023-02-28T07:50:28;2.70;99.90
52381;DHT22;38310;52.796;6.942;2023-02-28T07:53:00;2.70;99.90
52381;DHT22;38310;52.796;6.942;2023-02-28T07:55:26;3.50;99.90
52381;DHT22;38310;52.796;6.942;2023-02-28T07:57:52;2.70;99.90
52381;DHT22;38310;52.796;6.942;2023-02-28T08:00:18;2.70;99.90
52381;DHT22;38310;52.796;6.942;2023-02-28T08:02:44;2.70;99.90
52381;DHT22;38310;52.796;6.942;2023-02-28T08:05:09;2.80;99.90
52381;DHT22;38310;52.796;6.942;2023-02-28T08:07:35;2.90;99.90
52381;DHT22;38310;52.796;6.942;2023-02-28T08:10:01;2.90;99.90
52381;DHT22;38310;52.796;6.942;2023-02-28T08:12:27;4.30;99.90
52381;DHT22;38310;52.796;6.942;2023-02-28T08:14:52;3.10;99.90
52381;DHT22;38310;52.796;6.942;2023-02-28T08:17:18;3.20;99.90
52381;DHT22;38310;52.796;6.942;2023-02-28T08:19:47;3.30;99.90
52381;DHT22;38310;52.796;6.942;2023-02-28T08:22:12;3.90;99.90
52381;DHT22;38310;52.796;6.942;2023-02-28T08:24:41;3.60;99.90
52381;DHT22;38310;52.796;6.942;2023-02-28T08:27:08;3.50;99.90
52381;DHT22;38310;52.796;6.942;2023-02-28T08:29:33;3.40;99.90
52381;DHT22;38310;52.796;6.942;2023-02-28T08:32:01;3.50;99.90
52381;DHT22;38310;52.796;6.942;2023-02-28T08:34:27;3.50;99.90
52381;DHT22;38310;52.796;6.942;2023-02-28T08:36:53;3.60;99.90
52381;DHT22;38310;52.796;6.942;2023-02-28T08:39:18;3.90;99.90
52381;DHT22;38310;52.796;6.942;2023-02-28T08:41:45;3.70;99.90
52381;DHT22;38310;52.796;6.942;2023-02-28T08:44:11;3.80;99.90
52381;DHT22;38310;52.796;6.942;2023-02-28T08:46:38;3.80;99.90
52381;DHT22;38310;52.796;6.942;2023-02-28T08:49:03;3.90;99.90
52381;DHT22;38310;52.796;6.942;2023-02-28T08:51:29;4.10;99.90
52381;DHT22;38310;52.796;6.942;2023-02-28T08:53:58;4.00;99.90
52381;DHT22;38310;52.796;6.942;2023-02-28T08:56:26;4.10;99.90
52381;DHT22;38310;52.796;6.942;2023-02-28T08:58:54;4.70;99.90
52381;DHT22;38310;52.796;6.942;2023-02-28T09:01:26;4.40;99.90
52381;DHT22;38310;52.796;6.942;2023-02-28T09:03:56;4.20;99.90
52381;DHT22;38310;52.796;6.942;2023-02-28T09:06:23;4.80;99.90
52381;DHT22;38310;52.796;6.942;2023-02-28T09:08:50;4.50;99.90
52381;DHT22;38310;52.796;6.942;2023-02-28T09:11:16;4.20;99.90
52381;DHT22;38310;52.796;6.942;2023-02-28T09:13:42;4.20;99.90
52381;DHT22;38310;52.796;6.942;2023-02-28T09:16:11;4.40;99.90
52381;DHT22;38310;52.796;6.942;2023-02-28T09:18:38;4.40;99.90
52381;DHT22;38310;52.796;6.942;2023-02-28T09:21:09;4.60;99.90
52381;DHT22;38310;52.796;6.942;2023-02-28T09:23:36;4.60;99.90
52381;DHT22;38310;52.796;6.942;2023-02-28T09:26:04;4.70;99.90
52381;DHT22;38310;52.796;6.942;2023-02-28T09:28:30;4.80;99.90
52381;DHT22;38310;52.796;6.942;2023-02-28T09:30:56;5.10;99.90
52381;DHT22;38310;52.796;6.942;2023-02-28T09:33:25;5.50;99.90
52381;DHT22;38310;52.796;6.942;2023-02-28T09:35:56;5.70;99.90
52381;DHT22;38310;52.796;6.942;2023-02-28T09:38:22;5.10;99.90
52381;DHT22;38310;52.796;6.942;2023-02-28T09:40:58;5.10;99.90
52381;DHT22;38310;52.796;6.942;2023-02-28T09:43:28;5.20;99.90
52381;DHT22;38310;52.796;6.942;2023-02-28T09:46:18;4.90;99.90
52381;DHT22;38310;52.796;6.942;2023-02-28T09:48:48;5.00;99.90
52381;DHT22;38310;52.796;6.942;2023-02-28T09:51:27;5.20;99.90
52381;DHT22;38310;52.796;6.942;2023-02-28T09:53:55;5.20;99.90
52381;DHT22;38310;52.796;6.942;2023-02-28T09:56:27;5.40;99.90
52381;DHT22;38310;52.796;6.942;2023-02-28T10:10:04;6.00;99.90
52381;DHT22;38310;52.796;6.942;2023-02-28T10:12:32;5.60;99.90
52381;DHT22;38310;52.796;6.942;2023-02-28T10:14:59;5.50;99.90
52381;DHT22;38310;52.796;6.942;2023-02-28T10:17:38;5.70;99.90
52381;DHT22;38310;52.796;6.942;2023-02-28T10:20:11;5.90;99.90
52381;DHT22;38310;52.796;6.942;2023-02-28T10:25:34;6.40;99.90
52381;DHT22;38310;52.796;6.942;2023-02-28T10:28:13;6.50;99.90
52381;DHT22;38310;52.796;6.942;2023-02-28T10:30:51;6.70;99.90
52381;DHT22;38310;52.796;6.942;2023-02-28T10:33:30;6.40;99.90
52381;DHT22;38310;52.796;6.942;2023-02-28T10:35:56;6.80;99.90
52381;DHT22;38310;52.796;6.942;2023-02-28T10:38:34;6.80;99.90
52381;DHT22;38310;52.796;6.942;2023-02-28T10:41:30;7.10;99.90
52381;DHT22;38310;52.796;6.942;2023-02-28T10:44:21;7.40;99.90
52381;DHT22;38310;52.796;6.942;2023-02-28T10:46:48;7.70;99.90
52381;DHT22;38310;52.796;6.942;2023-02-28T10:49:21;7.90;99.90
52381;DHT22;38310;52.796;6.942;2023-02-28T10:51:51;8.10;99.90
52381;DHT22;38310;52.796;6.942;2023-02-28T10:54:29;8.00;99.90
52381;DHT22;38310;52.796;6.942;2023-02-28T10:59:32;8.40;99.90
52381;DHT22;38310;52.796;6.942;2023-02-28T11:01:58;8.60;99.90
52381;DHT22;38310;52.796;6.942;2023-02-28T11:09:49;9.10;99.90
52381;DHT22;38310;52.796;6.942;2023-02-28T11:12:36;9.20;99.90
52381;DHT22;38310;52.796;6.942;2023-02-28T11:15:21;9.60;99.90
52381;DHT22;38310;52.796;6.942;2023-02-28T11:18:17;10.00;99.90
52381;DHT22;38310;52.796;6.942;2023-02-28T11:20:52;10.20;99.90
52381;DHT22;38310;52.796;6.942;2023-02-28T11:23:19;9.90;99.90
52381;DHT22;38310;52.796;6.942;2023-02-28T11:25:51;10.30;99.90
52381;DHT22;38310;52.796;6.942;2023-02-28T11:28:32;10.60;99.90
52381;DHT22;38310;52.796;6.942;2023-02-28T11:33:49;11.10;99.90
52381;DHT22;38310;52.796;6.942;2023-02-28T11:36:25;11.00;99.90
52381;DHT22;38310;52.796;6.942;2023-02-28T11:38:54;11.50;99.90
52381;DHT22;38310;52.796;6.942;2023-02-28T11:41:37;11.80;99.00
52381;DHT22;38310;52.796;6.942;2023-02-28T12:05:57;13.70;96.20
52381;DHT22;38310;52.796;6.942;2023-02-28T12:22:43;14.00;95.70
52381;DHT22;38310;52.796;6.942;2023-02-28T12:27:41;14.80;93.40
52381;DHT22;38310;52.796;6.942;2023-02-28T12:30:33;14.30;93.90
52381;DHT22;38310;52.796;6.942;2023-02-28T12:33:08;14.60;90.00
52381;DHT22;38310;52.796;6.942;2023-02-28T12:35:38;13.40;92.90
52381;DHT22;38310;52.796;6.942;2023-02-28T12:41:03;14.20;92.70
52381;DHT22;38310;52.796;6.942;2023-02-28T12:43:38;14.70;92.70
52381;DHT22;38310;52.796;6.942;2023-02-28T12:46:10;14.90;90.50
52381;DHT22;38310;52.796;6.942;2023-02-28T12:48:47;14.60;90.90
52381;DHT22;38310;52.796;6.942;2023-02-28T12:51:15;15.10;88.00
52381;DHT22;38310;52.796;6.942;2023-02-28T12:53:56;15.10;90.00
52381;DHT22;38310;52.796;6.942;2023-02-28T12:56:35;15.50;91.10
52381;DHT22;38310;52.796;6.942;2023-02-28T12:59:25;15.20;88.10
52381;DHT22;38310;52.796;6.942;2023-02-28T13:04:57;15.40;85.00
52381;DHT22;38310;52.796;6.942;2023-02-28T13:07:49;16.00;88.70
52381;DHT22;38310;52.796;6.942;2023-02-28T13:10:18;15.90;84.80
52381;DHT22;38310;52.796;6.942;2023-02-28T13:12:49;16.10;87.70
52381;DHT22;38310;52.796;6.942;2023-02-28T13:15:22;16.40;82.90
52381;DHT22;38310;52.796;6.942;2023-02-28T13:17:55;15.50;80.80
52381;DHT22;38310;52.796;6.942;2023-02-28T13:22:54;16.30;86.50
52381;DHT22;38310;52.796;6.942;2023-02-28T13:28:12;16.40;80.70
52381;DHT22;38310;52.796;6.942;2023-02-28T13:44:15;15.80;74.80
52381;DHT22;38310;52.796;6.942;2023-02-28T13:49:26;15.50;78.20
52381;DHT22;38310;52.796;6.942;2023-02-28T13:54:54;16.30;79.90
52381;DHT22;38310;52.796;6.942;2023-02-28T14:03:13;16.10;79.00
52381;DHT22;38310;52.796;6.942;2023-02-28T14:05:43;15.90;75.40
52381;DHT22;38310;52.796;6.942;2023-02-28T14:08:21;16.00;77.50
52381;DHT22;38310;52.796;6.942;2023-02-28T14:10:49;15.80;73.40
52381;DHT22;38310;52.796;6.942;2023-02-28T14:13:44;15.60;77.50
52381;DHT22;38310;52.796;6.942;2023-02-28T14:16:17;15.80;78.50
52381;DHT22;38310;52.796;6.942;2023-02-28T14:19:10;15.50;76.40
52381;DHT22;38310;52.796;6.942;2023-02-28T14:21:43;15.00;76.30
52381;DHT22;38310;52.796;6.942;2023-02-28T14:35:20;13.70;80.80
52381;DHT22;38310;52.796;6.942;2023-02-28T14:37:47;13.50;81.70
52381;DHT22;38310;52.796;6.942;2023-02-28T14:40:33;13.10;82.40
52381;DHT22;38310;52.796;6.942;2023-02-28T14:43:06;12.90;79.40
52381;DHT22;38310;52.796;6.942;2023-02-28T14:45:41;12.40;82.30
52381;DHT22;38310;52.796;6.942;2023-02-28T14:48:09;12.30;83.70
52381;DHT22;38310;52.796;6.942;2023-02-28T14:50:36;12.00;82.90
52381;DHT22;38310;52.796;6.942;2023-02-28T14:53:03;11.70;82.40
52381;DHT22;38310;52.796;6.942;2023-02-28T14:55:31;11.40;82.30
52381;DHT22;38310;52.796;6.942;2023-02-28T14:58:03;11.10;84.60
52381;DHT22;38310;52.796;6.942;2023-02-28T15:00:33;11.00;84.00
52381;DHT22;38310;52.796;6.942;2023-02-28T15:03:01;10.80;84.20
52381;DHT22;38310;52.796;6.942;2023-02-28T15:05:37;10.60;86.30
52381;DHT22;38310;52.796;6.942;2023-02-28T15:08:16;10.50;86.50
52381;DHT22;38310;52.796;6.942;2023-02-28T15:11:03;10.50;86.50
52381;DHT22;38310;52.796;6.942;2023-02-28T15:16:08;10.00;86.10
52381;DHT22;38310;52.796;6.942;2023-02-28T15:18:51;9.90;87.80
52381;DHT22;38310;52.796;6.942;2023-02-28T15:21:24;9.80;87.00
52381;DHT22;38310;52.796;6.942;2023-02-28T15:26:21;9.40;87.60
52381;DHT22;38310;52.796;6.942;2023-02-28T15:29:19;9.40;88.20
52381;DHT22;38310;52.796;6.942;2023-02-28T15:31:51;9.10;85.80
52381;DHT22;38310;52.796;6.942;2023-02-28T15:34:20;9.10;88.20
52381;DHT22;38310;52.796;6.942;2023-02-28T15:36:47;9.00;87.70
52381;DHT22;38310;52.796;6.942;2023-02-28T15:39:25;8.90;88.60
52381;DHT22;38310;52.796;6.942;2023-02-28T15:42:09;8.70;86.90
52381;DHT22;38310;52.796;6.942;2023-02-28T15:44:36;8.60;88.90
52381;DHT22;38310;52.796;6.942;2023-02-28T15:47:14;8.40;89.50
52381;DHT22;38310;52.796;6.942;2023-02-28T15:49:50;8.30;90.00
52381;DHT22;38310;52.796;6.942;2023-02-28T15:52:21;8.30;90.40
52381;DHT22;38310;52.796;6.942;2023-02-28T15:54:48;8.10;90.40
52381;DHT22;38310;52.796;6.942;2023-02-28T15:57:20;8.10;91.00
52381;DHT22;38310;52.796;6.942;2023-02-28T16:00:00;8.00;90.50
52381;DHT22;38310;52.796;6.942;2023-02-28T16:02:37;8.00;90.80
52381;DHT22;38310;52.796;6.942;2023-02-28T16:07:32;7.90;90.90
52381;DHT22;38310;52.796;6.942;2023-02-28T16:09:59;8.10;91.50
52381;DHT22;38310;52.796;6.942;2023-02-28T16:12:30;7.80;91.50
52381;DHT22;38310;52.796;6.942;2023-02-28T16:14:59;7.60;91.80
52381;DHT22;38310;52.796;6.942;2023-02-28T16:17:34;7.60;92.20
52381;DHT22;38310;52.796;6.942;2023-02-28T16:20:00;7.50;92.80
52381;DHT22;38310;52.796;6.942;2023-02-28T16:22:25;7.40;93.00
52381;DHT22;38310;52.796;6.942;2023-02-28T16:24:51;7.40;94.00
52381;DHT22;38310;52.796;6.942;2023-02-28T16:27:27;7.30;94.00
52381;DHT22;38310;52.796;6.942;2023-02-28T16:29:54;7.30;94.70
52381;DHT22;38310;52.796;6.942;2023-02-28T16:32:20;7.20;94.90
52381;DHT22;38310;52.796;6.942;2023-02-28T16:34:46;7.00;95.50
52381;DHT22;38310;52.796;6.942;2023-02-28T16:37:14;7.00;96.40
52381;DHT22;38310;52.796;6.942;2023-02-28T16:39:41;7.00;96.30
52381;DHT22;38310;52.796;6.942;2023-02-28T16:42:23;6.90;97.20
52381;DHT22;38310;52.796;6.942;2023-02-28T16:44:51;6.80;98.00
52381;DHT22;38310;52.796;6.942;2023-02-28T16:47:17;6.70;98.50
52381;DHT22;38310;52.796;6.942;2023-02-28T16:49:43;6.60;98.30
52381;DHT22;38310;52.796;6.942;2023-02-28T16:52:12;6.60;98.10
52381;DHT22;38310;52.796;6.942;2023-02-28T16:54:38;6.40;99.00
52381;DHT22;38310;52.796;6.942;2023-02-28T16:57:05;6.80;99.90
52381;DHT22;38310;52.796;6.942;2023-02-28T16:59:32;6.30;99.90
52381;DHT22;38310;52.796;6.942;2023-02-28T17:01:58;6.20;99.90
52381;DHT22;38310;52.796;6.942;2023-02-28T17:04:27;6.10;99.90
52381;DHT22;38310;52.796;6.942;2023-02-28T17:06:53;5.90;99.90
52381;DHT22;38310;52.796;6.942;2023-02-28T17:09:20;5.90;99.90
52381;DHT22;38310;52.796;6.942;2023-02-28T17:11:46;5.80;99.90
52381;DHT22;38310;52.796;6.942;2023-02-28T17:14:12;5.60;99.90
52381;DHT22;38310;52.796;6.942;2023-02-28T17:16:39;5.50;99.90
52381;DHT22;38310;52.796;6.942;2023-02-28T17:19:15;5.40;99.90
52381;DHT22;38310;52.796;6.942;2023-02-28T17:21:41;5.60;99.90
52381;DHT22;38310;52.796;6.942;2023-02-28T17:24:08;5.30;99.90
52381;DHT22;38310;52.796;6.942;2023-02-28T17:26:34;5.00;99.90
52381;DHT22;38310;52.796;6.942;2023-02-28T17:29:00;5.60;99.90
52381;DHT22;38310;52.796;6.942;2023-02-28T17:31:26;4.80;99.90
52381;DHT22;38310;52.796;6.942;2023-02-28T17:33:53;4.90;99.90
52381;DHT22;38310;52.796;6.942;2023-02-28T17:36:23;4.70;99.90
52381;DHT22;38310;52.796;6.942;2023-02-28T17:38:50;4.70;99.90
52381;DHT22;38310;52.796;6.942;2023-02-28T17:41:16;4.50;99.90
52381;DHT22;38310;52.796;6.942;2023-02-28T17:43:41;4.40;99.90
52381;DHT22;38310;52.796;6.942;2023-02-28T17:46:18;4.30;99.90
52381;DHT22;38310;52.796;6.942;2023-02-28T17:48:50;4.30;99.90
52381;DHT22;38310;52.796;6.942;2023-02-28T17:51:17;4.20;99.90
52381;DHT22;38310;52.796;6.942;2023-02-28T17:53:43;4.10;99.90
52381;DHT22;38310;52.796;6.942;2023-02-28T17:56:17;3.60;99.90
52381;DHT22;38310;52.796;6.942;2023-02-28T17:58:44;4.00;99.90
52381;DHT22;38310;52.796;6.942;2023-02-28T18:01:10;4.00;99.90
52381;DHT22;38310;52.796;6.942;2023-02-28T18:03:38;3.80;99.90
52381;DHT22;38310;52.796;6.942;2023-02-28T18:06:04;3.60;99.90
52381;DHT22;38310;52.796;6.942;2023-02-28T18:08:31;3.60;99.90
52381;DHT22;38310;52.796;6.942;2023-02-28T18:10:59;3.70;99.90
52381;DHT22;38310;52.796;6.942;2023-02-28T18:13:24;3.40;99.90
52381;DHT22;38310;52.796;6.942;2023-02-28T18:15:50;3.30;99.90
52381;DHT22;38310;52.796;6.942;2023-02-28T18:18:16;3.20;99.90
52381;DHT22;38310;52.796;6.942;2023-02-28T18:20:41;3.20;99.90
52381;DHT22;38310;52.796;6.942;2023-02-28T18:23:07;3.10;99.90
52381;DHT22;38310;52.796;6.942;2023-02-28T18:25:33;3.00;99.90
52381;DHT22;38310;52.796;6.942;2023-02-28T18:27:59;4.20;99.90
52381;DHT22;38310;52.796;6.942;2023-02-28T18:30:31;4.50;99.90
52381;DHT22;38310;52.796;6.942;2023-02-28T18:32:58;2.80;99.90